createdAt,value
2019-04-04T00:01:12.929Z,97413.57
2019-04-04T00:03:41.435Z,97409.75
2019-04-04T00:06:09.906Z,97405.26
2019-04-04T00:08:38.412Z,97414.24
2019-04-04T00:11:06.886Z,97413.50
2019-04-04T00:13:36.823Z,97417.78
2019-04-04T00:16:06.495Z,97411.59
2019-04-04T00:18:36.087Z,97408.46
2019-04-04T00:21:08.579Z,97406.94
2019-04-04T00:23:39.307Z,97414.06
2019-04-04T00:26:10.867Z,97408.02
2019-04-04T00:28:40.123Z,97403.33
2019-04-04T00:31:08.747Z,97405.92
2019-04-04T00:33:37.376Z,97402.68
2019-04-04T00:36:06.017Z,97401.23
2019-04-04T00:38:36.046Z,97397.98
2019-04-04T00:41:05.158Z,97400.42
2019-04-04T00:43:33.764Z,97399.90
2019-04-04T00:46:02.404Z,97401.52
2019-04-04T00:48:32.156Z,97395.78
2019-04-04T00:51:01.359Z,97394.78
2019-04-04T00:53:30.002Z,97392.25
2019-04-04T00:55:58.606Z,97390.91
2019-04-04T00:58:27.240Z,97395.16
2019-04-04T01:00:55.858Z,97392.77
2019-04-04T01:03:24.479Z,97394.52
2019-04-04T01:05:53.125Z,97390.67
2019-04-04T01:08:21.764Z,97392.11
2019-04-04T01:10:50.387Z,97386.52
2019-04-04T01:13:19.007Z,97390.27
2019-04-04T01:15:47.617Z,97388.27
2019-04-04T01:18:16.320Z,97394.06
2019-04-04T01:20:44.929Z,97387.49
2019-04-04T01:23:13.502Z,97392.73
2019-04-04T01:25:42.038Z,97381.61
2019-04-04T01:28:10.679Z,97385.71
2019-04-04T01:30:39.216Z,97376.56
2019-04-04T01:33:07.768Z,97374.53
2019-04-04T01:35:36.708Z,97375.55
2019-04-04T01:38:05.416Z,97374.05
2019-04-04T01:40:34.032Z,97374.66
2019-04-04T01:43:02.642Z,97376.19
2019-04-04T01:45:31.284Z,97370.61
2019-04-04T01:47:59.842Z,97369.65
2019-04-04T01:50:28.465Z,97365.19
2019-04-04T01:52:59.281Z,97372.91
2019-04-04T01:55:27.413Z,97369.93
2019-04-04T01:57:56.016Z,97368.84
2019-04-04T02:00:24.681Z,97366.84
2019-04-04T02:02:53.226Z,97370.41
2019-04-04T02:05:21.773Z,97370.38
2019-04-04T02:07:50.324Z,97363.84
2019-04-04T02:10:18.864Z,97360.05
2019-04-04T02:12:47.370Z,97360.00
2019-04-04T02:15:15.853Z,97354.92
2019-04-04T02:17:44.326Z,97355.29
2019-04-04T02:20:13.067Z,97357.56
2019-04-04T02:22:41.759Z,97359.75
2019-04-04T02:25:10.722Z,97360.55
2019-04-04T02:27:39.198Z,97356.58
2019-04-04T02:30:14.858Z,97362.55
2019-04-04T02:32:38.884Z,97354.00
2019-04-04T02:35:10.121Z,97353.49
2019-04-04T02:37:37.839Z,97352.45
2019-04-04T02:40:08.681Z,97351.15
2019-04-04T02:42:38.262Z,97347.95
2019-04-04T02:45:06.995Z,97346.28
2019-04-04T02:47:35.497Z,97345.81
2019-04-04T02:50:05.402Z,97345.05
2019-04-04T02:52:33.909Z,97340.48
2019-04-04T02:55:02.457Z,97341.23
2019-04-04T02:57:30.964Z,97338.95
2019-04-04T02:59:59.521Z,97332.67
2019-04-04T03:02:27.996Z,97327.26
2019-04-04T03:04:56.564Z,97335.37
2019-04-04T03:07:29.852Z,97322.66
2019-04-04T03:09:55.500Z,97323.80
2019-04-04T03:12:26.287Z,97324.19
2019-04-04T03:14:54.201Z,97324.16
2019-04-04T03:17:22.746Z,97326.20
2019-04-04T03:19:51.249Z,97327.09
2019-04-04T03:22:19.737Z,97324.13
2019-04-04T03:24:48.213Z,97318.66
2019-04-04T03:27:16.677Z,97324.60
2019-04-04T03:29:45.197Z,97323.91
2019-04-04T03:32:15.971Z,97315.06
2019-04-04T03:34:49.704Z,97321.41
2019-04-04T03:37:14.075Z,97315.94
2019-04-04T03:39:42.596Z,97324.28
2019-04-04T03:42:11.092Z,97320.58
2019-04-04T03:44:39.640Z,97316.44
2019-04-04T03:47:10.429Z,97313.33
2019-04-04T03:49:38.335Z,97314.66
2019-04-04T03:52:10.011Z,97316.63
2019-04-04T03:54:37.100Z,97313.00
2019-04-04T03:57:05.602Z,97315.84
2019-04-04T03:59:34.068Z,97314.81
2019-04-04T04:02:02.600Z,97318.77
2019-04-04T04:04:31.141Z,97315.20
2019-04-04T04:06:59.628Z,97316.23
2019-04-04T04:09:28.117Z,97314.67
2019-04-04T04:11:56.585Z,97321.69
2019-04-04T04:14:25.089Z,97318.95
2019-04-04T04:16:53.572Z,97320.95
2019-04-04T04:19:24.194Z,97321.75
2019-04-04T04:21:52.249Z,97321.03
2019-04-04T04:24:20.744Z,97323.22
2019-04-04T04:26:49.243Z,97324.13
2019-04-04T04:29:17.713Z,97328.09
2019-04-04T04:31:49.326Z,97328.48
2019-04-04T04:34:16.418Z,97325.94
2019-04-04T04:36:47.658Z,97318.35
2019-04-04T04:39:15.099Z,97323.19
2019-04-04T04:41:43.611Z,97320.11
2019-04-04T04:44:12.072Z,97322.83
2019-04-04T04:46:40.559Z,97330.10
2019-04-04T04:49:09.053Z,97326.34
2019-04-04T04:51:37.522Z,97327.92
2019-04-04T04:54:06.029Z,97327.84
2019-04-04T04:56:34.501Z,97335.45
2019-04-04T04:59:03.006Z,97326.03
2019-04-04T05:01:31.570Z,97324.32
2019-04-04T05:04:02.416Z,97326.91
2019-04-04T05:06:30.252Z,97323.70
2019-04-04T05:08:58.730Z,97332.02
2019-04-04T05:11:27.216Z,97331.80
2019-04-04T05:13:56.083Z,97335.98
2019-04-04T05:16:25.898Z,97339.92
2019-04-04T05:18:54.388Z,97340.78
2019-04-04T05:21:25.085Z,97342.30
2019-04-04T05:23:53.106Z,97344.11
2019-04-04T05:26:21.582Z,97347.11
2019-04-04T05:28:50.046Z,97348.05
2019-04-04T05:31:18.817Z,97353.03
2019-04-04T05:33:47.371Z,97349.33
2019-04-04T05:36:15.870Z,97352.89
2019-04-04T05:38:47.137Z,97354.75
2019-04-04T05:41:16.451Z,97356.22
2019-04-04T05:43:44.967Z,97354.71
2019-04-04T05:46:13.459Z,97356.13
2019-04-04T05:48:41.921Z,97355.70
2019-04-04T05:51:10.441Z,97355.94
2019-04-04T05:53:38.929Z,97356.95
2019-04-04T05:56:07.509Z,97354.81
2019-04-04T05:58:35.980Z,97348.13
2019-04-04T06:01:07.627Z,97359.83
2019-04-04T06:03:36.509Z,97366.59
2019-04-04T06:06:05.048Z,97360.47
2019-04-04T06:08:33.548Z,97357.72
2019-04-04T06:11:04.795Z,97359.92
2019-04-04T06:13:33.272Z,97354.33
2019-04-04T06:16:02.061Z,97361.44
2019-04-04T06:18:32.037Z,97360.23
2019-04-04T06:21:00.518Z,97352.71
2019-04-04T06:23:29.024Z,97364.02
2019-04-04T06:25:57.588Z,97356.68
2019-04-04T06:28:26.084Z,97348.91
2019-04-04T06:30:54.560Z,97346.35
2019-04-04T06:33:23.044Z,97344.55
2019-04-04T06:35:51.634Z,97345.62
2019-04-04T06:38:22.954Z,97347.98
2019-04-04T06:40:50.311Z,97347.77
2019-04-04T06:43:18.800Z,97350.63
2019-04-04T06:45:47.541Z,97344.42
2019-04-04T06:48:16.025Z,97348.30
2019-04-04T06:50:44.527Z,97351.25
2019-04-04T06:53:13.180Z,97348.08
2019-04-04T06:55:41.663Z,97341.04
2019-04-04T06:58:10.138Z,97347.95
2019-04-04T07:00:38.647Z,97348.41
2019-04-04T07:03:07.143Z,97342.29
2019-04-04T07:05:37.930Z,97344.24
2019-04-04T07:08:05.939Z,97347.86
2019-04-04T07:10:34.413Z,97346.61
2019-04-04T07:13:20.155Z,97344.98
2019-04-04T07:15:33.099Z,97346.05
2019-04-04T07:18:01.612Z,97346.78
2019-04-04T07:20:30.080Z,97345.85
2019-04-04T07:22:58.565Z,97341.55
2019-04-04T07:25:27.032Z,97339.64
2019-04-04T07:27:55.521Z,97341.56
2019-04-04T07:30:24.071Z,97342.59
2019-04-04T07:32:52.585Z,97339.16
2019-04-04T07:35:21.260Z,97343.59
2019-04-04T07:37:52.925Z,97344.31
2019-04-04T07:40:20.426Z,97340.30
2019-04-04T07:42:49.022Z,97338.50
2019-04-04T07:45:17.544Z,97341.64
2019-04-04T07:47:47.429Z,97340.49
2019-04-04T07:50:16.364Z,97335.61
2019-04-04T07:52:44.849Z,97340.77
2019-04-04T07:55:14.881Z,97334.03
2019-04-04T07:57:43.351Z,97345.96
2019-04-04T08:00:12.503Z,97340.64
2019-04-04T08:02:40.973Z,97335.45
2019-04-04T08:05:12.924Z,97341.49
2019-04-04T08:07:40.097Z,97339.70
2019-04-04T08:10:19.850Z,97334.31
2019-04-04T08:12:39.237Z,97339.30
2019-04-04T08:15:07.984Z,97334.84
2019-04-04T08:17:36.638Z,97341.34
2019-04-04T08:20:06.780Z,97331.92
2019-04-04T08:22:35.322Z,97345.86
2019-04-04T08:25:05.045Z,97333.53
2019-04-04T08:27:33.509Z,97335.75
2019-04-04T08:30:02.041Z,97329.94
2019-04-04T08:32:30.523Z,97325.11
2019-04-04T08:34:59.060Z,97327.51
2019-04-04T08:37:27.594Z,97317.16
2019-04-04T08:39:56.064Z,97332.83
2019-04-04T08:42:24.600Z,97326.05
2019-04-04T08:44:53.050Z,97313.83
2019-04-04T08:47:21.582Z,97328.63
2019-04-04T08:49:50.169Z,97320.55
2019-04-04T08:52:20.794Z,97333.06
2019-04-04T08:54:48.917Z,97324.77
2019-04-04T08:57:17.383Z,97318.06
2019-04-04T08:59:45.950Z,97316.52
2019-04-04T09:02:14.430Z,97321.05
2019-04-04T09:04:42.935Z,97314.50
2019-04-04T09:07:11.437Z,97307.57
2019-04-04T09:09:40.013Z,97316.16
2019-04-04T09:12:08.600Z,97302.68
2019-04-04T09:14:37.086Z,97311.57
2019-04-04T09:17:05.631Z,97310.92
2019-04-04T09:19:34.137Z,97305.45
2019-04-04T09:22:02.608Z,97300.02
2019-04-04T09:24:31.105Z,97314.80
2019-04-04T09:26:59.573Z,97299.28
2019-04-04T09:29:28.060Z,97302.95
2019-04-04T09:31:56.532Z,97302.27
2019-04-04T09:34:25.015Z,97308.89
2019-04-04T09:36:53.519Z,97295.65
2019-04-04T09:39:21.991Z,97297.25
2019-04-04T09:41:50.463Z,97297.25
2019-04-04T09:44:18.933Z,97299.61
2019-04-04T09:46:47.419Z,97293.48
2019-04-04T09:49:15.901Z,97286.52
2019-04-04T09:51:44.384Z,97289.75
2019-04-04T09:54:12.862Z,97285.73
2019-04-04T09:56:41.338Z,97282.46
2019-04-04T09:59:09.838Z,97290.56
2019-04-04T10:01:38.476Z,97276.30
2019-04-04T10:04:06.987Z,97278.16
2019-04-04T10:06:35.463Z,97278.16
2019-04-04T10:09:15.688Z,97270.56
2019-04-04T10:11:36.473Z,97273.56
2019-04-04T10:14:05.131Z,97276.16
2019-04-04T10:16:33.587Z,97265.95
2019-04-04T10:19:04.095Z,97262.47
2019-04-04T10:21:32.590Z,97272.63
2019-04-04T10:24:01.095Z,97265.81
2019-04-04T10:26:29.743Z,97258.09
2019-04-04T10:28:58.211Z,97258.09
2019-04-04T10:31:26.727Z,97262.81
2019-04-04T10:33:55.263Z,97256.06
2019-04-04T10:36:23.760Z,97256.06
2019-04-04T10:38:52.238Z,97258.59
2019-04-04T10:41:20.737Z,97255.95
2019-04-04T10:43:49.213Z,97243.54
2019-04-04T10:46:17.715Z,97238.31
2019-04-04T10:48:46.212Z,97249.13
2019-04-04T10:51:14.689Z,97243.80
2019-04-04T10:53:43.159Z,97245.58
2019-04-04T10:56:11.643Z,97252.09
2019-04-04T10:58:40.146Z,97245.57
2019-04-04T11:01:08.614Z,97235.47
2019-04-04T11:03:37.125Z,97243.36
2019-04-04T11:06:05.611Z,97231.02
2019-04-04T11:08:34.077Z,97226.47
2019-04-04T11:11:02.956Z,97233.63
2019-04-04T11:13:33.891Z,97220.28
2019-04-04T11:16:01.655Z,97235.66
2019-04-04T11:18:30.142Z,97225.03
2019-04-04T11:20:58.631Z,97238.59
2019-04-04T11:23:27.108Z,97230.54
2019-04-04T11:25:55.570Z,97229.14
2019-04-04T11:28:24.826Z,97231.02
2019-04-04T11:30:53.295Z,97224.50
2019-04-04T11:33:21.810Z,97214.53
2019-04-04T11:35:50.354Z,97222.84
2019-04-04T11:38:18.860Z,97223.80
2019-04-04T11:40:47.398Z,97219.80
2019-04-04T11:43:15.939Z,97213.20
2019-04-04T11:45:44.403Z,97213.81
2019-04-04T11:48:12.870Z,97207.12
2019-04-04T11:50:41.354Z,97204.73
2019-04-04T11:53:09.862Z,97198.69
2019-04-04T11:55:38.366Z,97204.14
2019-04-04T11:58:06.843Z,97189.73
2019-04-04T12:00:39.504Z,97194.41
2019-04-04T12:03:07.991Z,97187.21
2019-04-04T12:05:36.530Z,97183.79
2019-04-04T12:08:05.208Z,97186.15
2019-04-04T12:10:33.780Z,97176.05
2019-04-04T12:13:03.132Z,97188.09
2019-04-04T12:15:31.602Z,97184.62
2019-04-04T12:18:00.097Z,97180.42
2019-04-04T12:20:28.596Z,97175.83
2019-04-04T12:22:57.075Z,97172.97
2019-04-04T12:25:25.628Z,97171.69
2019-04-04T12:27:54.122Z,97178.72
2019-04-04T12:30:24.288Z,97168.88
2019-04-04T12:32:52.760Z,97155.11
2019-04-04T12:35:21.280Z,97167.97
2019-04-04T12:37:49.747Z,97172.84
2019-04-04T12:40:20.709Z,97175.44
2019-04-04T12:42:48.605Z,97175.44
2019-04-04T12:45:17.215Z,97164.01
2019-04-04T12:47:45.889Z,97170.36
2019-04-04T12:50:15.191Z,97177.58
2019-04-04T12:52:43.673Z,97162.64
2019-04-04T12:55:12.511Z,97164.53
2019-04-04T12:57:40.980Z,97164.31
2019-04-04T13:00:11.131Z,97162.95
2019-04-04T13:02:39.765Z,97156.97
2019-04-04T13:05:08.991Z,97150.98
2019-04-04T13:07:37.569Z,97145.52
2019-04-04T13:10:11.773Z,97150.09
2019-04-04T13:12:40.360Z,97160.00
2019-04-04T13:15:09.571Z,97143.44
2019-04-04T13:17:38.144Z,97145.06
2019-04-04T13:20:08.274Z,97148.74
2019-04-04T13:22:36.952Z,97152.31
2019-04-04T13:25:08.189Z,97157.02
2019-04-04T13:27:36.869Z,97152.06
2019-04-04T13:30:11.305Z,97141.69
2019-04-04T13:32:39.949Z,97133.83
2019-04-04T13:35:09.588Z,97134.78
2019-04-04T13:37:38.083Z,97140.14
2019-04-04T13:40:07.352Z,97135.92
2019-04-04T13:42:35.806Z,97146.09
2019-04-04T13:45:06.258Z,97134.74
2019-04-04T13:47:38.230Z,97131.05
2019-04-04T13:50:12.235Z,97134.39
2019-04-04T13:52:39.956Z,97138.16
2019-04-04T13:55:08.664Z,97131.09
2019-04-04T13:57:39.272Z,97142.47
2019-04-04T14:00:09.401Z,97142.78
2019-04-04T14:02:37.952Z,97139.80
2019-04-04T14:05:10.004Z,97130.84
2019-04-04T14:07:38.692Z,97130.84
2019-04-04T14:10:07.801Z,97136.24
2019-04-04T14:12:36.289Z,97130.85
2019-04-04T14:15:10.406Z,97137.22
2019-04-04T14:17:38.881Z,97135.81
2019-04-04T14:20:08.928Z,97132.48
2019-04-04T14:22:37.459Z,97131.23
2019-04-04T14:25:07.507Z,97131.45
2019-04-04T14:27:37.408Z,97128.33
2019-04-04T14:30:07.346Z,97125.42
2019-04-04T14:32:35.838Z,97124.92
2019-04-04T14:35:06.596Z,97115.72
2019-04-04T14:37:35.075Z,97115.72
2019-04-04T14:40:05.224Z,97118.70
2019-04-04T14:42:33.703Z,97111.47
2019-04-04T14:45:02.889Z,97121.98
2019-04-04T14:47:33.097Z,97120.86
2019-04-04T14:50:04.627Z,97119.28
2019-04-04T14:52:32.093Z,97110.88
2019-04-04T14:55:00.556Z,97110.88
2019-04-04T14:57:29.067Z,97104.59
2019-04-04T14:59:57.541Z,97104.59
2019-04-04T15:02:26.104Z,97097.41
2019-04-04T15:04:54.614Z,97099.67
2019-04-04T15:07:23.209Z,97099.67
2019-04-04T15:09:51.753Z,97101.19
2019-04-04T15:12:20.214Z,97101.19
2019-04-04T15:14:48.779Z,97099.54
2019-04-04T15:17:17.290Z,97087.31
2019-04-04T15:19:45.766Z,97087.31
2019-04-04T15:22:14.248Z,97103.91
2019-04-04T15:24:44.462Z,97103.91
2019-04-04T15:27:14.097Z,97108.09
2019-04-04T15:29:44.082Z,97110.57
2019-04-04T15:32:12.522Z,97103.56
2019-04-04T15:34:40.985Z,97108.57
2019-04-04T15:37:09.497Z,97108.57
2019-04-04T15:39:37.960Z,97115.02
2019-04-04T15:42:06.529Z,97115.02
2019-04-04T15:44:35.001Z,97114.21
2019-04-04T15:47:03.609Z,97115.20
2019-04-04T15:49:32.083Z,97108.58
2019-04-04T15:52:00.560Z,97112.78
2019-04-04T15:54:29.042Z,97117.35
2019-04-04T15:56:57.529Z,97116.83
2019-04-04T15:59:26.004Z,97116.83
2019-04-04T16:01:54.584Z,97124.99
2019-04-04T16:04:23.050Z,97119.03
2019-04-04T16:06:51.719Z,97129.24
2019-04-04T16:09:20.188Z,97123.84
2019-04-04T16:11:49.999Z,97122.30
2019-04-04T16:14:18.793Z,97122.30
2019-04-04T16:16:47.296Z,97127.95
2019-04-04T16:19:15.809Z,97131.48
2019-04-04T16:21:44.280Z,97134.64
2019-04-04T16:24:12.849Z,97127.33
2019-04-04T16:26:41.335Z,97127.37
2019-04-04T16:29:09.848Z,97133.61
2019-04-04T16:31:38.336Z,97133.61
2019-04-04T16:34:06.808Z,97139.27
2019-04-04T16:36:35.325Z,97133.98
2019-04-04T16:39:05.984Z,97144.77
2019-04-04T16:41:34.471Z,97144.30
2019-04-04T16:44:06.178Z,97148.29
2019-04-04T16:46:34.686Z,97146.62
2019-04-04T16:49:03.230Z,97147.31
2019-04-04T16:51:31.731Z,97149.31
2019-04-04T16:54:00.222Z,97159.48
2019-04-04T16:56:28.731Z,97160.23
2019-04-04T16:58:57.238Z,97155.66
2019-04-04T17:01:25.719Z,97158.59
2019-04-04T17:04:01.575Z,97162.98
2019-04-04T17:06:24.966Z,97162.59
2019-04-04T17:08:53.464Z,97162.05
2019-04-04T17:11:21.945Z,97162.73
2019-04-04T17:13:50.454Z,97170.85
2019-04-04T17:16:21.233Z,97163.53
2019-04-04T17:18:49.150Z,97174.20
2019-04-04T17:21:17.627Z,97170.32
2019-04-04T17:23:46.138Z,97175.09
2019-04-04T17:26:14.623Z,97176.05
2019-04-04T17:28:43.410Z,97181.37
2019-04-04T17:31:12.525Z,97187.41
2019-04-04T17:33:41.154Z,97184.06
2019-04-04T17:36:09.732Z,97194.16
2019-04-04T17:38:38.490Z,97190.02
2019-04-04T17:41:08.120Z,97189.65
2019-04-04T17:43:38.024Z,97198.73
2019-04-04T17:46:06.954Z,97193.95
2019-04-04T17:48:35.612Z,97204.34
2019-04-04T17:51:06.495Z,97205.33
2019-04-04T17:53:35.454Z,97206.94
2019-04-04T17:56:07.526Z,97216.12
2019-04-04T17:58:35.709Z,97211.33
2019-04-04T18:01:05.654Z,97218.78
2019-04-04T18:03:34.228Z,97216.30
2019-04-04T18:06:02.707Z,97218.31
2019-04-04T18:08:31.220Z,97212.52
2019-04-04T18:11:00.028Z,97227.50
2019-04-04T18:13:28.526Z,97225.11
2019-04-04T18:15:57.019Z,97229.48
2019-04-04T18:18:25.506Z,97229.67
2019-04-04T18:20:53.996Z,97233.92
2019-04-04T18:23:23.511Z,97231.47
2019-04-04T18:25:52.092Z,97233.63
2019-04-04T18:28:20.580Z,97241.45
2019-04-04T18:30:49.073Z,97241.48
2019-04-04T18:33:19.725Z,97246.12
2019-04-04T18:35:47.800Z,97242.91
2019-04-04T18:38:16.306Z,97238.23
2019-04-04T18:40:44.779Z,97239.48
2019-04-04T18:43:13.268Z,97237.11
2019-04-04T18:45:41.825Z,97240.03
2019-04-04T18:48:10.292Z,97234.63
2019-04-04T18:50:38.780Z,97237.84
2019-04-04T18:53:08.897Z,97245.61
2019-04-04T18:55:38.225Z,97240.34
2019-04-04T18:58:06.782Z,97247.74
2019-04-04T19:00:35.355Z,97240.12
2019-04-04T19:03:03.997Z,97249.70
2019-04-04T19:05:32.632Z,97245.38
2019-04-04T19:08:01.115Z,97243.11
2019-04-04T19:10:29.666Z,97242.89
2019-04-04T19:13:05.354Z,97243.38
2019-04-04T19:15:28.447Z,97244.30
2019-04-04T19:17:56.956Z,97242.67
2019-04-04T19:20:25.492Z,97244.38
2019-04-04T19:22:54.001Z,97246.61
2019-04-04T19:25:22.611Z,97249.67
2019-04-04T19:27:51.301Z,97249.52
2019-04-04T19:30:20.013Z,97253.42
2019-04-04T19:32:48.615Z,97247.92
2019-04-04T19:35:17.658Z,97247.78
2019-04-04T19:37:46.131Z,97251.62
2019-04-04T19:40:15.571Z,97254.14
2019-04-04T19:42:44.132Z,97251.67
2019-04-04T19:45:13.586Z,97253.01
2019-04-04T19:47:42.051Z,97256.23
2019-04-04T19:50:11.498Z,97258.66
2019-04-04T19:52:40.120Z,97257.44
2019-04-04T19:55:08.867Z,97260.08
2019-04-04T19:57:37.346Z,97262.77
2019-04-04T20:00:09.064Z,97265.53
2019-04-04T20:02:37.575Z,97262.59
2019-04-04T20:05:07.385Z,97263.95
2019-04-04T20:07:35.853Z,97260.38
2019-04-04T20:10:07.104Z,97267.19
2019-04-04T20:12:35.573Z,97269.14
2019-04-04T20:15:05.857Z,97273.54
2019-04-04T20:17:34.337Z,97274.36
2019-04-04T20:20:04.377Z,97270.75
2019-04-04T20:22:32.893Z,97278.73
2019-04-04T20:25:01.369Z,97281.06
2019-04-04T20:27:29.852Z,97286.62
2019-04-04T20:29:58.398Z,97282.56
2019-04-04T20:32:26.879Z,97291.09
2019-04-04T20:34:55.403Z,97289.57
2019-04-04T20:37:23.892Z,97287.08
2019-04-04T20:39:52.367Z,97288.43
2019-04-04T20:42:20.877Z,97300.03
2019-04-04T20:44:49.367Z,97303.82
2019-04-04T20:47:17.875Z,97301.81
2019-04-04T20:49:46.352Z,97305.83
2019-04-04T20:52:14.828Z,97311.24
2019-04-04T20:54:43.314Z,97310.74
2019-04-04T20:57:11.784Z,97315.64
2019-04-04T20:59:40.270Z,97314.48
2019-04-04T21:02:08.746Z,97317.00
2019-04-04T21:04:37.287Z,97316.66
2019-04-04T21:07:05.837Z,97311.54
2019-04-04T21:09:34.306Z,97315.31
2019-04-04T21:12:04.451Z,97312.10
2019-04-04T21:14:32.924Z,97316.02
2019-04-04T21:17:01.437Z,97324.52
2019-04-04T21:19:29.926Z,97318.48
2019-04-04T21:21:58.428Z,97315.02
2019-04-04T21:24:26.900Z,97319.42
2019-04-04T21:26:55.412Z,97325.45
2019-04-04T21:29:25.390Z,97321.09
2019-04-04T21:31:53.860Z,97323.23
2019-04-04T21:34:22.369Z,97324.47
2019-04-04T21:36:50.841Z,97330.31
2019-04-04T21:39:19.351Z,97327.41
2019-04-04T21:41:50.138Z,97322.29
2019-04-04T21:44:18.643Z,97323.30
2019-04-04T21:46:47.148Z,97331.88
2019-04-04T21:49:15.617Z,97331.18
2019-04-04T21:51:44.102Z,97331.59
2019-04-04T21:54:12.573Z,97330.65
2019-04-04T21:56:41.075Z,97339.16
2019-04-04T21:59:09.562Z,97333.35
2019-04-04T22:01:38.544Z,97337.05
2019-04-04T22:04:07.086Z,97342.80
2019-04-04T22:06:35.564Z,97342.84
2019-04-04T22:09:07.629Z,97342.78
2019-04-04T22:11:36.098Z,97344.45
2019-04-04T22:14:04.602Z,97350.46
2019-04-04T22:16:33.152Z,97349.34
2019-04-04T22:19:01.657Z,97346.98
2019-04-04T22:21:30.127Z,97350.31
2019-04-04T22:23:58.624Z,97351.55
2019-04-04T22:26:27.105Z,97361.64
2019-04-04T22:28:55.601Z,97348.63
2019-04-04T22:31:24.077Z,97351.28
2019-04-04T22:33:53.478Z,97341.55
2019-04-04T22:36:21.947Z,97339.70
2019-04-04T22:38:50.490Z,97344.12
2019-04-04T22:41:19.060Z,97347.98
2019-04-04T22:43:47.539Z,97337.53
2019-04-04T22:46:16.041Z,97346.52
2019-04-04T22:48:44.518Z,97351.33
2019-04-04T22:51:13.024Z,97351.41
2019-04-04T22:53:41.532Z,97348.29
2019-04-04T22:56:10.000Z,97349.27
2019-04-04T22:58:38.572Z,97352.27
2019-04-04T23:01:07.045Z,97351.78
2019-04-04T23:03:35.547Z,97352.80
2019-04-04T23:06:04.092Z,97350.43
2019-04-04T23:08:32.595Z,97342.67
2019-04-04T23:11:01.070Z,97339.30
2019-04-04T23:13:29.611Z,97341.81
2019-04-04T23:15:58.087Z,97341.06
2019-04-04T23:18:26.562Z,97333.73
2019-04-04T23:20:55.129Z,97345.36
2019-04-04T23:23:23.599Z,97342.33
2019-04-04T23:25:52.075Z,97346.38
2019-04-04T23:28:20.550Z,97339.06
2019-04-04T23:30:49.049Z,97341.22
2019-04-04T23:33:17.522Z,97342.70
2019-04-04T23:35:46.065Z,97340.66
2019-04-04T23:38:14.595Z,97342.17
2019-04-04T23:40:43.009Z,97333.42
2019-04-04T23:43:11.518Z,97341.03
2019-04-04T23:45:40.000Z,97345.27
2019-04-04T23:48:08.512Z,97338.89
2019-04-04T23:50:36.976Z,97335.57
2019-04-04T23:53:05.462Z,97337.18
2019-04-04T23:55:33.934Z,97337.71
2019-04-04T23:58:02.444Z,97352.42
